sensor_id;sensor_type;location;lat;lon;timestamp;temperature;humidity
68912;SHT31;55953;51.650;-0.522;2023-02-05T00:00:27;9.13;80.74
68912;SHT31;55953;51.650;-0.522;2023-02-05T00:03:15;9.13;80.76
68912;SHT31;55953;51.650;-0.522;2023-02-05T00:05:43;9.17;80.72
68912;SHT31;55953;51.650;-0.522;2023-02-05T00:08:10;9.17;80.72
68912;SHT31;55953;51.650;-0.522;2023-02-05T00:10:38;9.19;80.70
68912;SHT31;55953;51.650;-0.522;2023-02-05T00:13:06;9.20;80.69
68912;SHT31;55953;51.650;-0.522;2023-02-05T00:15:38;9.19;80.75
68912;SHT31;55953;51.650;-0.522;2023-02-05T00:18:07;9.21;80.78
68912;SHT31;55953;51.650;-0.522;2023-02-05T00:20:35;9.23;80.84
68912;SHT31;55953;51.650;-0.522;2023-02-05T00:23:03;9.26;80.86
68912;SHT31;55953;51.650;-0.522;2023-02-05T00:25:31;9.24;81.01
68912;SHT31;55953;51.650;-0.522;2023-02-05T00:27:59;9.26;80.92
68912;SHT31;55953;51.650;-0.522;2023-02-05T00:30:27;9.26;81.08
68912;SHT31;55953;51.650;-0.522;2023-02-05T00:32:56;9.23;81.10
68912;SHT31;55953;51.650;-0.522;2023-02-05T00:35:23;9.17;81.29
68912;SHT31;55953;51.650;-0.522;2023-02-05T00:37:51;9.10;81.61
68912;SHT31;55953;51.650;-0.522;2023-02-05T00:40:19;9.04;81.81
68912;SHT31;55953;51.650;-0.522;2023-02-05T00:42:47;8.96;82.22
68912;SHT31;55953;51.650;-0.522;2023-02-05T00:45:15;8.90;82.23
68912;SHT31;55953;51.650;-0.522;2023-02-05T00:47:43;8.85;82.43
68912;SHT31;55953;51.650;-0.522;2023-02-05T00:50:11;8.77;82.94
68912;SHT31;55953;51.650;-0.522;2023-02-05T00:52:39;8.69;82.99
68912;SHT31;55953;51.650;-0.522;2023-02-05T00:55:07;8.63;83.02
68912;SHT31;55953;51.650;-0.522;2023-02-05T00:57:35;8.57;82.86
68912;SHT31;55953;51.650;-0.522;2023-02-05T01:00:04;8.50;83.17
68912;SHT31;55953;51.650;-0.522;2023-02-05T01:02:33;8.42;83.13
68912;SHT31;55953;51.650;-0.522;2023-02-05T01:05:01;8.33;83.57
68912;SHT31;55953;51.650;-0.522;2023-02-05T01:07:29;8.28;83.44
68912;SHT31;55953;51.650;-0.522;2023-02-05T01:09:57;8.21;83.93
68912;SHT31;55953;51.650;-0.522;2023-02-05T01:12:25;8.16;84.24
68912;SHT31;55953;51.650;-0.522;2023-02-05T01:14:53;8.13;84.40
68912;SHT31;55953;51.650;-0.522;2023-02-05T01:17:21;8.08;84.30
68912;SHT31;55953;51.650;-0.522;2023-02-05T01:19:49;8.04;84.51
68912;SHT31;55953;51.650;-0.522;2023-02-05T01:22:17;8.07;84.90
68912;SHT31;55953;51.650;-0.522;2023-02-05T01:24:45;8.13;84.76
68912;SHT31;55953;51.650;-0.522;2023-02-05T01:27:13;8.14;84.89
68912;SHT31;55953;51.650;-0.522;2023-02-05T01:29:41;8.18;84.91
68912;SHT31;55953;51.650;-0.522;2023-02-05T01:32:09;8.24;84.75
68912;SHT31;55953;51.650;-0.522;2023-02-05T01:34:37;8.30;84.72
68912;SHT31;55953;51.650;-0.522;2023-02-05T01:37:05;8.34;84.57
68912;SHT31;55953;51.650;-0.522;2023-02-05T01:39:32;8.39;84.40
68912;SHT31;55953;51.650;-0.522;2023-02-05T01:42:00;8.42;84.19
68912;SHT31;55953;51.650;-0.522;2023-02-05T01:44:28;8.45;83.98
68912;SHT31;55953;51.650;-0.522;2023-02-05T01:46:57;8.49;83.84
68912;SHT31;55953;51.650;-0.522;2023-02-05T01:49:27;8.52;83.67
68912;SHT31;55953;51.650;-0.522;2023-02-05T01:52:03;8.52;83.58
68912;SHT31;55953;51.650;-0.522;2023-02-05T01:54:43;8.51;83.43
68912;SHT31;55953;51.650;-0.522;2023-02-05T01:57:17;8.48;83.12
68912;SHT31;55953;51.650;-0.522;2023-02-05T01:59:50;8.42;83.12
68912;SHT31;55953;51.650;-0.522;2023-02-05T02:02:18;8.36;83.08
68912;SHT31;55953;51.650;-0.522;2023-02-05T02:04:47;8.27;82.97
68912;SHT31;55953;51.650;-0.522;2023-02-05T02:07:21;8.15;82.91
68912;SHT31;55953;51.650;-0.522;2023-02-05T02:09:51;8.04;82.66
68912;SHT31;55953;51.650;-0.522;2023-02-05T02:12:21;7.95;82.54
68912;SHT31;55953;51.650;-0.522;2023-02-05T02:14:55;7.86;82.47
68912;SHT31;55953;51.650;-0.522;2023-02-05T02:17:31;7.73;82.53
68912;SHT31;55953;51.650;-0.522;2023-02-05T02:20:06;7.65;82.49
68912;SHT31;55953;51.650;-0.522;2023-02-05T02:36:38;7.05;82.74
68912;SHT31;55953;51.650;-0.522;2023-02-05T02:39:25;6.97;82.72
68912;SHT31;55953;51.650;-0.522;2023-02-05T02:42:02;6.89;82.82
68912;SHT31;55953;51.650;-0.522;2023-02-05T02:44:54;6.82;82.87
68912;SHT31;55953;51.650;-0.522;2023-02-05T02:47:31;6.76;82.93
68912;SHT31;55953;51.650;-0.522;2023-02-05T02:50:12;6.68;83.02
68912;SHT31;55953;51.650;-0.522;2023-02-05T02:52:47;6.61;83.17
68912;SHT31;55953;51.650;-0.522;2023-02-05T02:55:19;6.56;83.30
68912;SHT31;55953;51.650;-0.522;2023-02-05T02:57:51;6.49;83.32
68912;SHT31;55953;51.650;-0.522;2023-02-05T03:00:23;6.42;83.55
68912;SHT31;55953;51.650;-0.522;2023-02-05T03:02:55;6.38;83.76
68912;SHT31;55953;51.650;-0.522;2023-02-05T03:05:29;6.33;83.75
68912;SHT31;55953;51.650;-0.522;2023-02-05T03:08:05;6.28;83.77
68912;SHT31;55953;51.650;-0.522;2023-02-05T03:10:53;6.24;83.92
68912;SHT31;55953;51.650;-0.522;2023-02-05T03:13:30;6.20;83.94
68912;SHT31;55953;51.650;-0.522;2023-02-05T03:16:00;6.14;84.13
68912;SHT31;55953;51.650;-0.522;2023-02-05T03:18:28;6.11;84.13
68912;SHT31;55953;51.650;-0.522;2023-02-05T03:20:59;6.06;84.30
68912;SHT31;55953;51.650;-0.522;2023-02-05T03:23:32;6.01;84.40
68912;SHT31;55953;51.650;-0.522;2023-02-05T03:26:00;5.98;84.37
68912;SHT31;55953;51.650;-0.522;2023-02-05T03:28:41;5.94;84.42
68912;SHT31;55953;51.650;-0.522;2023-02-05T03:31:15;5.89;84.42
68912;SHT31;55953;51.650;-0.522;2023-02-05T03:34:02;5.85;84.45
68912;SHT31;55953;51.650;-0.522;2023-02-05T03:40:17;5.74;84.47
68912;SHT31;55953;51.650;-0.522;2023-02-05T03:43:15;5.67;84.76
68912;SHT31;55953;51.650;-0.522;2023-02-05T03:57:43;5.36;84.25
68912;SHT31;55953;51.650;-0.522;2023-02-05T04:00:26;5.33;83.57
68912;SHT31;55953;51.650;-0.522;2023-02-05T04:02:55;5.30;83.37
68912;SHT31;55953;51.650;-0.522;2023-02-05T04:05:28;5.27;83.30
68912;SHT31;55953;51.650;-0.522;2023-02-05T04:07:56;5.22;83.38
68912;SHT31;55953;51.650;-0.522;2023-02-05T04:10:27;5.18;83.44
68912;SHT31;55953;51.650;-0.522;2023-02-05T04:12:56;5.14;83.55
68912;SHT31;55953;51.650;-0.522;2023-02-05T04:15:25;5.08;83.86
68912;SHT31;55953;51.650;-0.522;2023-02-05T04:17:54;5.06;83.97
68912;SHT31;55953;51.650;-0.522;2023-02-05T04:20:25;4.99;84.22
68912;SHT31;55953;51.650;-0.522;2023-02-05T04:22:53;4.94;84.27
68912;SHT31;55953;51.650;-0.522;2023-02-05T04:25:21;4.89;84.65
68912;SHT31;55953;51.650;-0.522;2023-02-05T04:27:50;4.87;84.77
68912;SHT31;55953;51.650;-0.522;2023-02-05T04:30:19;4.84;84.94
68912;SHT31;55953;51.650;-0.522;2023-02-05T04:32:47;4.80;85.06
68912;SHT31;55953;51.650;-0.522;2023-02-05T04:35:16;4.77;85.13
68912;SHT31;55953;51.650;-0.522;2023-02-05T04:37:45;4.71;85.39
68912;SHT31;55953;51.650;-0.522;2023-02-05T04:40:13;4.69;85.13
68912;SHT31;55953;51.650;-0.522;2023-02-05T04:42:41;4.64;85.23
68912;SHT31;55953;51.650;-0.522;2023-02-05T04:45:10;4.59;85.40
68912;SHT31;55953;51.650;-0.522;2023-02-05T04:47:39;4.55;85.34
68912;SHT31;55953;51.650;-0.522;2023-02-05T04:50:07;4.50;85.59
68912;SHT31;55953;51.650;-0.522;2023-02-05T04:52:36;4.48;85.63
68912;SHT31;55953;51.650;-0.522;2023-02-05T04:55:03;4.47;85.54
68912;SHT31;55953;51.650;-0.522;2023-02-05T04:57:32;4.45;85.32
68912;SHT31;55953;51.650;-0.522;2023-02-05T05:00:00;4.42;85.09
68912;SHT31;55953;51.650;-0.522;2023-02-05T05:02:28;4.39;84.80
68912;SHT31;55953;51.650;-0.522;2023-02-05T05:04:55;4.37;84.60
68912;SHT31;55953;51.650;-0.522;2023-02-05T05:07:23;4.35;84.47
68912;SHT31;55953;51.650;-0.522;2023-02-05T05:09:51;4.32;84.21
68912;SHT31;55953;51.650;-0.522;2023-02-05T05:12:19;4.29;84.05
68912;SHT31;55953;51.650;-0.522;2023-02-05T05:14:47;4.26;83.94
68912;SHT31;55953;51.650;-0.522;2023-02-05T05:17:15;4.21;83.91
68912;SHT31;55953;51.650;-0.522;2023-02-05T05:19:42;4.17;83.79
68912;SHT31;55953;51.650;-0.522;2023-02-05T05:22:10;4.12;83.79
68912;SHT31;55953;51.650;-0.522;2023-02-05T05:24:38;4.08;83.63
68912;SHT31;55953;51.650;-0.522;2023-02-05T05:27:06;4.05;83.53
68912;SHT31;55953;51.650;-0.522;2023-02-05T05:29:34;4.01;83.22
68912;SHT31;55953;51.650;-0.522;2023-02-05T05:32:02;3.99;82.94
68912;SHT31;55953;51.650;-0.522;2023-02-05T05:34:31;3.98;82.60
68912;SHT31;55953;51.650;-0.522;2023-02-05T05:36:59;3.95;82.52
68912;SHT31;55953;51.650;-0.522;2023-02-05T05:39:26;3.92;82.26
68912;SHT31;55953;51.650;-0.522;2023-02-05T05:42:13;3.91;82.09
68912;SHT31;55953;51.650;-0.522;2023-02-05T05:44:59;3.89;81.92
68912;SHT31;55953;51.650;-0.522;2023-02-05T05:47:27;3.85;81.87
68912;SHT31;55953;51.650;-0.522;2023-02-05T05:49:55;3.82;81.65
68912;SHT31;55953;51.650;-0.522;2023-02-05T05:52:23;3.80;81.55
68912;SHT31;55953;51.650;-0.522;2023-02-05T05:54:51;3.77;80.99
68912;SHT31;55953;51.650;-0.522;2023-02-05T05:57:18;3.76;81.07
68912;SHT31;55953;51.650;-0.522;2023-02-05T05:59:47;3.74;81.17
68912;SHT31;55953;51.650;-0.522;2023-02-05T06:02:15;3.71;80.95
68912;SHT31;55953;51.650;-0.522;2023-02-05T06:04:43;3.69;80.66
68912;SHT31;55953;51.650;-0.522;2023-02-05T06:07:12;3.65;80.51
68912;SHT31;55953;51.650;-0.522;2023-02-05T06:09:40;3.63;80.20
68912;SHT31;55953;51.650;-0.522;2023-02-05T06:12:08;3.62;80.43
68912;SHT31;55953;51.650;-0.522;2023-02-05T06:14:38;3.56;80.34
68912;SHT31;55953;51.650;-0.522;2023-02-05T06:17:06;3.54;80.31
68912;SHT31;55953;51.650;-0.522;2023-02-05T06:19:33;3.49;80.13
68912;SHT31;55953;51.650;-0.522;2023-02-05T06:22:01;3.45;79.96
68912;SHT31;55953;51.650;-0.522;2023-02-05T06:24:30;3.42;80.09
68912;SHT31;55953;51.650;-0.522;2023-02-05T06:26:57;3.38;79.89
68912;SHT31;55953;51.650;-0.522;2023-02-05T06:29:25;3.36;79.29
68912;SHT31;55953;51.650;-0.522;2023-02-05T06:31:53;3.36;79.29
68912;SHT31;55953;51.650;-0.522;2023-02-05T06:34:21;3.35;79.03
68912;SHT31;55953;51.650;-0.522;2023-02-05T06:36:49;3.32;78.74
68912;SHT31;55953;51.650;-0.522;2023-02-05T06:39:17;3.28;78.67
68912;SHT31;55953;51.650;-0.522;2023-02-05T06:41:45;3.26;78.49
68912;SHT31;55953;51.650;-0.522;2023-02-05T06:44:13;3.25;78.44
68912;SHT31;55953;51.650;-0.522;2023-02-05T06:46:41;3.23;78.29
68912;SHT31;55953;51.650;-0.522;2023-02-05T06:49:09;3.22;77.75
68912;SHT31;55953;51.650;-0.522;2023-02-05T06:51:36;3.23;77.74
68912;SHT31;55953;51.650;-0.522;2023-02-05T06:54:04;3.22;77.71
68912;SHT31;55953;51.650;-0.522;2023-02-05T06:56:32;3.21;77.82
68912;SHT31;55953;51.650;-0.522;2023-02-05T06:59:00;3.17;77.52
68912;SHT31;55953;51.650;-0.522;2023-02-05T07:01:28;3.14;77.30
68912;SHT31;55953;51.650;-0.522;2023-02-05T07:03:56;3.13;77.79
68912;SHT31;55953;51.650;-0.522;2023-02-05T07:06:24;3.09;78.03
68912;SHT31;55953;51.650;-0.522;2023-02-05T07:08:54;3.06;78.08
68912;SHT31;55953;51.650;-0.522;2023-02-05T07:11:22;3.05;77.95
68912;SHT31;55953;51.650;-0.522;2023-02-05T07:13:50;3.02;77.90
68912;SHT31;55953;51.650;-0.522;2023-02-05T07:16:18;3.01;78.18
68912;SHT31;55953;51.650;-0.522;2023-02-05T07:18:46;2.99;78.01
68912;SHT31;55953;51.650;-0.522;2023-02-05T07:21:15;3.02;78.10
68912;SHT31;55953;51.650;-0.522;2023-02-05T07:23:43;3.02;77.89
68912;SHT31;55953;51.650;-0.522;2023-02-05T07:26:12;3.01;77.69
68912;SHT31;55953;51.650;-0.522;2023-02-05T07:28:43;3.00;77.74
68912;SHT31;55953;51.650;-0.522;2023-02-05T07:31:13;2.98;78.01
68912;SHT31;55953;51.650;-0.522;2023-02-05T07:33:44;2.96;77.92
68912;SHT31;55953;51.650;-0.522;2023-02-05T07:36:15;2.94;77.75
68912;SHT31;55953;51.650;-0.522;2023-02-05T07:38:45;2.91;77.57
68912;SHT31;55953;51.650;-0.522;2023-02-05T07:41:15;2.87;77.49
68912;SHT31;55953;51.650;-0.522;2023-02-05T07:43:43;2.84;77.70
68912;SHT31;55953;51.650;-0.522;2023-02-05T07:46:12;2.80;77.58
68912;SHT31;55953;51.650;-0.522;2023-02-05T07:48:41;2.81;77.61
68912;SHT31;55953;51.650;-0.522;2023-02-05T07:51:13;2.83;77.28
68912;SHT31;55953;51.650;-0.522;2023-02-05T07:53:49;2.84;77.19
68912;SHT31;55953;51.650;-0.522;2023-02-05T07:56:18;2.85;77.30
68912;SHT31;55953;51.650;-0.522;2023-02-05T07:58:52;2.87;77.45
68912;SHT31;55953;51.650;-0.522;2023-02-05T08:01:19;2.90;77.30
68912;SHT31;55953;51.650;-0.522;2023-02-05T08:03:48;2.91;77.38
68912;SHT31;55953;51.650;-0.522;2023-02-05T08:06:16;2.90;77.02
68912;SHT31;55953;51.650;-0.522;2023-02-05T08:08:44;2.91;76.93
68912;SHT31;55953;51.650;-0.522;2023-02-05T08:11:12;2.91;76.70
68912;SHT31;55953;51.650;-0.522;2023-02-05T08:13:43;2.97;76.74
68912;SHT31;55953;51.650;-0.522;2023-02-05T08:16:12;3.01;76.70
68912;SHT31;55953;51.650;-0.522;2023-02-05T08:18:45;3.05;76.80
68912;SHT31;55953;51.650;-0.522;2023-02-05T08:21:17;3.08;76.35
68912;SHT31;55953;51.650;-0.522;2023-02-05T08:23:45;3.11;76.26
68912;SHT31;55953;51.650;-0.522;2023-02-05T08:26:14;3.13;76.13
68912;SHT31;55953;51.650;-0.522;2023-02-05T08:28:43;3.15;76.13
68912;SHT31;55953;51.650;-0.522;2023-02-05T08:31:13;3.21;76.33
68912;SHT31;55953;51.650;-0.522;2023-02-05T08:33:44;3.24;76.19
68912;SHT31;55953;51.650;-0.522;2023-02-05T08:36:14;3.27;75.94
68912;SHT31;55953;51.650;-0.522;2023-02-05T08:38:41;3.31;75.94
68912;SHT31;55953;51.650;-0.522;2023-02-05T08:41:09;3.38;75.82
68912;SHT31;55953;51.650;-0.522;2023-02-05T08:43:41;3.42;75.53
68912;SHT31;55953;51.650;-0.522;2023-02-05T08:46:13;3.46;75.55
68912;SHT31;55953;51.650;-0.522;2023-02-05T08:48:47;3.53;75.70
68912;SHT31;55953;51.650;-0.522;2023-02-05T08:51:16;3.57;75.31
68912;SHT31;55953;51.650;-0.522;2023-02-05T08:53:45;3.60;75.24
68912;SHT31;55953;51.650;-0.522;2023-02-05T08:56:13;3.64;74.89
68912;SHT31;55953;51.650;-0.522;2023-02-05T08:58:42;3.70;74.76
68912;SHT31;55953;51.650;-0.522;2023-02-05T09:01:11;3.75;74.87
68912;SHT31;55953;51.650;-0.522;2023-02-05T09:03:43;3.78;74.87
68912;SHT31;55953;51.650;-0.522;2023-02-05T09:06:14;3.82;74.97
68912;SHT31;55953;51.650;-0.522;2023-02-05T09:08:43;3.86;74.92
68912;SHT31;55953;51.650;-0.522;2023-02-05T09:11:10;3.89;74.76
68912;SHT31;55953;51.650;-0.522;2023-02-05T09:13:40;3.97;74.78
68912;SHT31;55953;51.650;-0.522;2023-02-05T09:16:10;4.02;74.50
68912;SHT31;55953;51.650;-0.522;2023-02-05T09:18:38;4.07;74.48
68912;SHT31;55953;51.650;-0.522;2023-02-05T09:21:07;4.11;74.06
68912;SHT31;55953;51.650;-0.522;2023-02-05T09:23:37;4.15;73.93
68912;SHT31;55953;51.650;-0.522;2023-02-05T09:26:04;4.22;74.25
68912;SHT31;55953;51.650;-0.522;2023-02-05T09:28:34;4.28;74.18
68912;SHT31;55953;51.650;-0.522;2023-02-05T09:31:12;4.31;74.07
68912;SHT31;55953;51.650;-0.522;2023-02-05T09:33:43;4.39;74.25
68912;SHT31;55953;51.650;-0.522;2023-02-05T09:36:14;4.43;73.80
68912;SHT31;55953;51.650;-0.522;2023-02-05T09:38:48;4.46;73.40
68912;SHT31;55953;51.650;-0.522;2023-02-05T09:47:53;4.63;72.97
68912;SHT31;55953;51.650;-0.522;2023-02-05T09:50:21;4.73;73.48
68912;SHT31;55953;51.650;-0.522;2023-02-05T09:52:59;4.79;73.17
68912;SHT31;55953;51.650;-0.522;2023-02-05T09:55:36;4.87;73.06
68912;SHT31;55953;51.650;-0.522;2023-02-05T09:58:12;4.93;73.10
68912;SHT31;55953;51.650;-0.522;2023-02-05T10:00:50;5.01;73.38
68912;SHT31;55953;51.650;-0.522;2023-02-05T10:12:13;5.26;72.41
68912;SHT31;55953;51.650;-0.522;2023-02-05T10:21:24;5.42;72.34
68912;SHT31;55953;51.650;-0.522;2023-02-05T10:27:06;5.57;72.63
68912;SHT31;55953;51.650;-0.522;2023-02-05T10:35:43;5.85;72.73
68912;SHT31;55953;51.650;-0.522;2023-02-05T10:38:35;5.91;71.83
68912;SHT31;55953;51.650;-0.522;2023-02-05T10:41:14;5.89;71.81
68912;SHT31;55953;51.650;-0.522;2023-02-05T10:47:05;6.07;72.19
68912;SHT31;55953;51.650;-0.522;2023-02-05T10:52:24;6.20;72.14
68912;SHT31;55953;51.650;-0.522;2023-02-05T10:54:52;6.30;71.87
68912;SHT31;55953;51.650;-0.522;2023-02-05T10:57:21;6.37;71.69
68912;SHT31;55953;51.650;-0.522;2023-02-05T10:59:52;6.45;71.33
68912;SHT31;55953;51.650;-0.522;2023-02-05T11:02:35;6.52;71.14
68912;SHT31;55953;51.650;-0.522;2023-02-05T11:05:16;6.53;70.63
68912;SHT31;55953;51.650;-0.522;2023-02-05T11:08:03;6.50;70.46
68912;SHT31;55953;51.650;-0.522;2023-02-05T11:10:32;6.49;70.56
68912;SHT31;55953;51.650;-0.522;2023-02-05T11:13:18;6.52;70.74
68912;SHT31;55953;51.650;-0.522;2023-02-05T11:15:59;6.62;71.08
68912;SHT31;55953;51.650;-0.522;2023-02-05T11:18:34;6.68;70.46
68912;SHT31;55953;51.650;-0.522;2023-02-05T11:21:10;6.79;70.87
68912;SHT31;55953;51.650;-0.522;2023-02-05T11:23:39;6.95;70.04
68912;SHT31;55953;51.650;-0.522;2023-02-05T11:26:24;7.14;69.66
68912;SHT31;55953;51.650;-0.522;2023-02-05T11:28:56;7.33;68.91
68912;SHT31;55953;51.650;-0.522;2023-02-05T11:36:39;7.91;67.66
68912;SHT31;55953;51.650;-0.522;2023-02-05T11:39:37;8.00;67.92
68912;SHT31;55953;51.650;-0.522;2023-02-05T11:42:21;8.13;68.03
68912;SHT31;55953;51.650;-0.522;2023-02-05T11:44:55;8.16;67.06
68912;SHT31;55953;51.650;-0.522;2023-02-05T11:47:28;8.16;67.18
68912;SHT31;55953;51.650;-0.522;2023-02-05T11:50:02;8.14;67.04
68912;SHT31;55953;51.650;-0.522;2023-02-05T11:52:45;8.06;66.75
68912;SHT31;55953;51.650;-0.522;2023-02-05T11:55:23;7.99;66.57
68912;SHT31;55953;51.650;-0.522;2023-02-05T11:57:57;8.06;67.43
68912;SHT31;55953;51.650;-0.522;2023-02-05T12:00:29;8.16;67.29
68912;SHT31;55953;51.650;-0.522;2023-02-05T12:03:05;8.25;67.27
68912;SHT31;55953;51.650;-0.522;2023-02-05T12:05:50;8.32;67.64
68912;SHT31;55953;51.650;-0.522;2023-02-05T12:08:29;8.23;66.29
68912;SHT31;55953;51.650;-0.522;2023-02-05T12:20:15;8.16;66.49
68912;SHT31;55953;51.650;-0.522;2023-02-05T12:23:14;8.09;66.80
68912;SHT31;55953;51.650;-0.522;2023-02-05T12:28:37;8.04;66.64
68912;SHT31;55953;51.650;-0.522;2023-02-05T12:35:08;8.03;67.21
68912;SHT31;55953;51.650;-0.522;2023-02-05T12:43:48;8.11;67.76
68912;SHT31;55953;51.650;-0.522;2023-02-05T12:46:41;8.20;67.61
68912;SHT31;55953;51.650;-0.522;2023-02-05T13:05:33;8.77;65.76
68912;SHT31;55953;51.650;-0.522;2023-02-05T13:08:57;8.83;64.96
68912;SHT31;55953;51.650;-0.522;2023-02-05T13:14:35;9.02;64.37
68912;SHT31;55953;51.650;-0.522;2023-02-05T13:17:23;8.98;64.75
68912;SHT31;55953;51.650;-0.522;2023-02-05T13:19:56;9.03;65.10
68912;SHT31;55953;51.650;-0.522;2023-02-05T13:22:33;9.08;65.19
68912;SHT31;55953;51.650;-0.522;2023-02-05T13:25:38;9.11;64.20
68912;SHT31;55953;51.650;-0.522;2023-02-05T13:28:38;9.10;65.20
68912;SHT31;55953;51.650;-0.522;2023-02-05T13:31:24;9.05;64.86
68912;SHT31;55953;51.650;-0.522;2023-02-05T13:34:07;8.90;64.60
68912;SHT31;55953;51.650;-0.522;2023-02-05T13:36:47;8.80;65.26
68912;SHT31;55953;51.650;-0.522;2023-02-05T13:39:48;8.70;65.24
68912;SHT31;55953;51.650;-0.522;2023-02-05T13:48:24;8.53;65.58
68912;SHT31;55953;51.650;-0.522;2023-02-05T14:00:18;8.66;65.38
68912;SHT31;55953;51.650;-0.522;2023-02-05T14:02:47;8.65;65.37
68912;SHT31;55953;51.650;-0.522;2023-02-05T14:05:31;8.65;65.17
68912;SHT31;55953;51.650;-0.522;2023-02-05T14:08:02;8.70;65.12
68912;SHT31;55953;51.650;-0.522;2023-02-05T14:10:34;8.73;65.02
68912;SHT31;55953;51.650;-0.522;2023-02-05T14:13:20;8.66;63.91
68912;SHT31;55953;51.650;-0.522;2023-02-05T14:15:52;8.58;64.47
68912;SHT31;55953;51.650;-0.522;2023-02-05T14:23:58;8.52;63.95
68912;SHT31;55953;51.650;-0.522;2023-02-05T14:26:52;8.57;63.97
68912;SHT31;55953;51.650;-0.522;2023-02-05T14:37:45;8.57;63.84
68912;SHT31;55953;51.650;-0.522;2023-02-05T14:42:57;8.57;61.50
68912;SHT31;55953;51.650;-0.522;2023-02-05T14:45:52;8.51;60.97
68912;SHT31;55953;51.650;-0.522;2023-02-05T14:48:26;8.42;62.42
68912;SHT31;55953;51.650;-0.522;2023-02-05T14:51:03;8.35;62.84
68912;SHT31;55953;51.650;-0.522;2023-02-05T14:53:53;8.31;63.40
68912;SHT31;55953;51.650;-0.522;2023-02-05T14:56:27;8.32;62.82
68912;SHT31;55953;51.650;-0.522;2023-02-05T14:59:18;8.31;62.57
68912;SHT31;55953;51.650;-0.522;2023-02-05T15:01:49;8.23;61.17
68912;SHT31;55953;51.650;-0.522;2023-02-05T15:07:22;8.29;61.90
68912;SHT31;55953;51.650;-0.522;2023-02-05T15:10:01;8.34;61.86
68912;SHT31;55953;51.650;-0.522;2023-02-05T15:15:24;8.27;62.29
68912;SHT31;55953;51.650;-0.522;2023-02-05T15:20:58;8.10;62.44
68912;SHT31;55953;51.650;-0.522;2023-02-05T15:23:35;8.05;62.85
68912;SHT31;55953;51.650;-0.522;2023-02-05T15:32:16;7.99;62.90
68912;SHT31;55953;51.650;-0.522;2023-02-05T15:34:51;7.98;63.20
68912;SHT31;55953;51.650;-0.522;2023-02-05T15:37:32;7.94;63.24
68912;SHT31;55953;51.650;-0.522;2023-02-05T15:40:09;7.89;63.80
68912;SHT31;55953;51.650;-0.522;2023-02-05T15:43:11;7.80;63.53
68912;SHT31;55953;51.650;-0.522;2023-02-05T15:45:45;7.74;63.69
68912;SHT31;55953;51.650;-0.522;2023-02-05T15:48:15;7.74;64.34
68912;SHT31;55953;51.650;-0.522;2023-02-05T15:50:53;7.73;64.48
68912;SHT31;55953;51.650;-0.522;2023-02-05T15:56:28;7.65;64.84
68912;SHT31;55953;51.650;-0.522;2023-02-05T15:59:04;7.57;64.69
68912;SHT31;55953;51.650;-0.522;2023-02-05T16:04:18;7.45;65.07
68912;SHT31;55953;51.650;-0.522;2023-02-05T16:06:49;7.38;65.18
68912;SHT31;55953;51.650;-0.522;2023-02-05T16:09:18;7.34;65.84
68912;SHT31;55953;51.650;-0.522;2023-02-05T16:11:49;7.28;66.08
68912;SHT31;55953;51.650;-0.522;2023-02-05T16:14:18;7.21;66.16
68912;SHT31;55953;51.650;-0.522;2023-02-05T16:17:02;7.18;66.25
68912;SHT31;55953;51.650;-0.522;2023-02-05T16:19:44;7.09;66.29
68912;SHT31;55953;51.650;-0.522;2023-02-05T16:25:02;6.94;66.69
68912;SHT31;55953;51.650;-0.522;2023-02-05T16:27:45;6.89;67.12
68912;SHT31;55953;51.650;-0.522;2023-02-05T16:33:11;6.81;67.42
68912;SHT31;55953;51.650;-0.522;2023-02-05T16:35:55;6.76;67.65
68912;SHT31;55953;51.650;-0.522;2023-02-05T16:38:27;6.72;67.95
68912;SHT31;55953;51.650;-0.522;2023-02-05T16:40:56;6.66;68.06
68912;SHT31;55953;51.650;-0.522;2023-02-05T16:43:43;6.61;68.08
68912;SHT31;55953;51.650;-0.522;2023-02-05T16:51:58;6.38;68.98
68912;SHT31;55953;51.650;-0.522;2023-02-05T16:59:56;6.16;69.80
68912;SHT31;55953;51.650;-0.522;2023-02-05T17:02:44;6.05;70.09
68912;SHT31;55953;51.650;-0.522;2023-02-05T17:05:22;5.91;70.34
68912;SHT31;55953;51.650;-0.522;2023-02-05T17:07:55;5.88;70.55
68912;SHT31;55953;51.650;-0.522;2023-02-05T17:10:30;5.85;70.55
68912;SHT31;55953;51.650;-0.522;2023-02-05T17:13:25;5.76;71.11
68912;SHT31;55953;51.650;-0.522;2023-02-05T17:16:21;5.67;71.21
68912;SHT31;55953;51.650;-0.522;2023-02-05T17:21:29;5.46;71.65
68912;SHT31;55953;51.650;-0.522;2023-02-05T17:24:00;5.45;71.98
68912;SHT31;55953;51.650;-0.522;2023-02-05T17:26:33;5.40;72.14
68912;SHT31;55953;51.650;-0.522;2023-02-05T17:29:04;5.34;72.18
68912;SHT31;55953;51.650;-0.522;2023-02-05T17:31:41;5.24;72.39
68912;SHT31;55953;51.650;-0.522;2023-02-05T17:34:09;5.13;72.82
68912;SHT31;55953;51.650;-0.522;2023-02-05T17:36:38;5.00;73.00
68912;SHT31;55953;51.650;-0.522;2023-02-05T17:39:06;4.84;73.35
68912;SHT31;55953;51.650;-0.522;2023-02-05T17:41:35;4.73;73.64
68912;SHT31;55953;51.650;-0.522;2023-02-05T17:44:22;4.64;74.12
68912;SHT31;55953;51.650;-0.522;2023-02-05T17:46:50;4.68;74.10
68912;SHT31;55953;51.650;-0.522;2023-02-05T17:49:20;4.65;74.07
68912;SHT31;55953;51.650;-0.522;2023-02-05T17:51:48;4.57;74.21
68912;SHT31;55953;51.650;-0.522;2023-02-05T17:54:17;4.52;74.51
68912;SHT31;55953;51.650;-0.522;2023-02-05T17:56:54;4.53;74.49
68912;SHT31;55953;51.650;-0.522;2023-02-05T17:59:29;4.56;74.53
68912;SHT31;55953;51.650;-0.522;2023-02-05T18:01:57;4.51;74.50
68912;SHT31;55953;51.650;-0.522;2023-02-05T18:04:25;4.42;74.69
68912;SHT31;55953;51.650;-0.522;2023-02-05T18:06:53;4.38;74.84
68912;SHT31;55953;51.650;-0.522;2023-02-05T18:09:21;4.32;75.11
68912;SHT31;55953;51.650;-0.522;2023-02-05T18:11:49;4.26;75.28
68912;SHT31;55953;51.650;-0.522;2023-02-05T18:14:17;4.19;75.33
68912;SHT31;55953;51.650;-0.522;2023-02-05T18:16:46;4.07;75.45
68912;SHT31;55953;51.650;-0.522;2023-02-05T18:19:14;3.93;75.75
68912;SHT31;55953;51.650;-0.522;2023-02-05T18:21:42;3.81;75.93
68912;SHT31;55953;51.650;-0.522;2023-02-05T18:24:13;3.74;76.08
68912;SHT31;55953;51.650;-0.522;2023-02-05T18:26:41;3.68;76.22
68912;SHT31;55953;51.650;-0.522;2023-02-05T18:29:09;3.69;76.52
68912;SHT31;55953;51.650;-0.522;2023-02-05T18:31:37;3.72;76.60
68912;SHT31;55953;51.650;-0.522;2023-02-05T18:34:05;3.72;76.58
68912;SHT31;55953;51.650;-0.522;2023-02-05T18:36:33;3.65;76.48
68912;SHT31;55953;51.650;-0.522;2023-02-05T18:39:01;3.61;76.48
68912;SHT31;55953;51.650;-0.522;2023-02-05T18:41:29;3.57;76.41
68912;SHT31;55953;51.650;-0.522;2023-02-05T18:43:58;3.48;76.62
68912;SHT31;55953;51.650;-0.522;2023-02-05T18:46:26;3.34;76.77
68912;SHT31;55953;51.650;-0.522;2023-02-05T18:48:55;3.33;76.95
68912;SHT31;55953;51.650;-0.522;2023-02-05T18:51:23;3.28;77.06
68912;SHT31;55953;51.650;-0.522;2023-02-05T18:53:51;3.22;77.31
68912;SHT31;55953;51.650;-0.522;2023-02-05T18:56:21;3.20;77.34
68912;SHT31;55953;51.650;-0.522;2023-02-05T18:58:56;3.14;77.33
68912;SHT31;55953;51.650;-0.522;2023-02-05T19:01:29;3.08;77.41
68912;SHT31;55953;51.650;-0.522;2023-02-05T19:03:59;3.00;77.57
68912;SHT31;55953;51.650;-0.522;2023-02-05T19:06:30;2.92;77.88
68912;SHT31;55953;51.650;-0.522;2023-02-05T19:08:58;2.85;78.07